Time;durP1;ratioP1;P1;durP2;ratioP2;P2;SDS_P1;SDS_P2;PMS_P1;PMS_P2;Temp;Humidity;BMP_temperature;BMP_pressure;BME280_temperature;BME280_humidity;BME280_pressure;Samples;Min_cycle;Max_cycle;Signal;HPM_P1;HPM_P2
2022/07/22 00:01:13;;;;;;;10.45;2.20;;;16.40;99.90;;;;;;5003592;28;20038;-79
2022/07/22 00:03:39;;;;;;;9.65;1.80;;;16.40;99.90;;;;;;5022285;28;20045;-79
2022/07/22 00:06:05;;;;;;;10.52;2.03;;;16.40;99.90;;;;;;5022285;28;20452;-80
2022/07/22 00:08:31;;;;;;;12.05;2.17;;;16.40;99.90;;;;;;5038816;28;20048;-80
2022/07/22 00:10:57;;;;;;;7.38;1.70;;;16.40;99.90;;;;;;5026933;28;20092;-80
2022/07/22 00:13:23;;;;;;;10.80;3.08;;;16.40;99.90;;;;;;5029803;28;20042;-80
2022/07/22 00:15:48;;;;;;;12.15;2.75;;;16.40;99.90;;;;;;5025895;28;20038;-79
2022/07/22 00:18:14;;;;;;;12.18;2.72;;;16.30;99.90;;;;;;5029682;28;20503;-79
2022/07/22 00:20:40;;;;;;;9.30;1.88;;;16.30;99.90;;;;;;5036768;28;20037;-79
2022/07/22 00:23:05;;;;;;;7.07;1.90;;;16.30;99.90;;;;;;5013247;28;20838;-79
2022/07/22 00:25:31;;;;;;;7.90;2.10;;;16.30;99.90;;;;;;5026201;28;20064;-79
2022/07/22 00:27:56;;;;;;;11.20;2.00;;;16.30;99.90;;;;;;4992442;28;20067;-79
2022/07/22 00:30:22;;;;;;;7.65;1.60;;;16.30;99.90;;;;;;5019175;28;20045;-79
2022/07/22 00:32:47;;;;;;;10.32;2.28;;;16.30;99.90;;;;;;5038477;28;20060;-79
2022/07/22 00:35:13;;;;;;;6.13;1.75;;;16.30;99.90;;;;;;5031746;28;20042;-79
2022/07/22 00:37:38;;;;;;;11.60;2.25;;;16.30;99.90;;;;;;5017609;28;20375;-79
2022/07/22 00:40:05;;;;;;;10.23;1.95;;;16.30;99.90;;;;;;5027900;28;20073;-79
2022/07/22 00:42:31;;;;;;;11.45;2.03;;;16.30;99.90;;;;;;5015978;28;20046;-79
2022/07/22 00:44:57;;;;;;;7.80;1.92;;;16.30;99.90;;;;;;5030768;28;20047;-79
2022/07/22 00:47:23;;;;;;;11.48;2.28;;;16.30;99.90;;;;;;5037251;28;20080;-79
2022/07/22 00:49:49;;;;;;;7.30;1.90;;;16.30;99.90;;;;;;5021195;28;20246;-79
2022/07/22 00:52:14;;;;;;;13.05;2.55;;;16.30;99.90;;;;;;5029118;28;20052;-79
2022/07/22 00:54:40;;;;;;;10.98;2.58;;;16.30;99.90;;;;;;5020677;28;20044;-79
2022/07/22 00:57:06;;;;;;;5.93;1.50;;;16.30;99.90;;;;;;5031293;28;20041;-79
2022/07/22 00:59:31;;;;;;;12.18;1.73;;;16.30;99.90;;;;;;5035115;28;20050;-80
2022/07/22 01:01:57;;;;;;;8.82;1.73;;;16.30;99.90;;;;;;5008204;28;20125;-79
2022/07/22 01:04:23;;;;;;;8.55;1.80;;;16.30;99.90;;;;;;5030193;28;20404;-79
2022/07/22 01:06:48;;;;;;;9.07;1.60;;;16.30;99.90;;;;;;5027592;28;20073;-79
2022/07/22 01:09:14;;;;;;;6.82;1.67;;;16.30;99.90;;;;;;5026503;28;20041;-79
2022/07/22 01:11:41;;;;;;;13.15;1.85;;;16.20;99.90;;;;;;5025809;28;20041;-79
2022/07/22 01:14:06;;;;;;;10.65;1.65;;;16.30;99.90;;;;;;5019268;28;20053;-79
2022/07/22 01:16:32;;;;;;;7.72;1.50;;;16.30;99.90;;;;;;5018788;28;20042;-79
2022/07/22 01:18:58;;;;;;;8.02;1.52;;;16.30;99.90;;;;;;5010705;28;20048;-80
2022/07/22 01:21:24;;;;;;;9.25;1.85;;;16.20;99.90;;;;;;5028992;28;20065;-79
2022/07/22 01:23:49;;;;;;;7.88;2.22;;;16.20;99.90;;;;;;5026602;28;20088;-79
2022/07/22 01:26:17;;;;;;;9.15;2.17;;;16.20;99.90;;;;;;5024216;28;20038;-80
2022/07/22 01:28:43;;;;;;;10.13;1.85;;;16.20;99.90;;;;;;5024808;28;20545;-79
2022/07/22 01:31:09;;;;;;;9.52;2.13;;;16.20;99.90;;;;;;5014325;28;20053;-79
2022/07/22 01:33:35;;;;;;;4.65;1.63;;;16.30;99.90;;;;;;5030219;28;20108;-79
2022/07/22 01:36:01;;;;;;;10.18;1.40;;;16.20;99.90;;;;;;5029074;28;20078;-79
2022/07/22 01:38:26;;;;;;;9.60;1.70;;;16.20;99.90;;;;;;5033020;28;20045;-79
2022/07/22 01:40:52;;;;;;;10.88;1.85;;;16.20;99.90;;;;;;5024020;28;20163;-80
2022/07/22 01:43:20;;;;;;;4.32;1.35;;;16.20;99.90;;;;;;5026435;28;20037;-79
2022/07/22 01:45:47;;;;;;;11.68;2.13;;;16.20;99.90;;;;;;5006314;28;20130;-79
2022/07/22 01:48:13;;;;;;;8.27;1.77;;;16.20;99.90;;;;;;5032501;28;20045;-79
2022/07/22 01:50:39;;;;;;;13.25;2.28;;;16.20;99.90;;;;;;5011292;28;20448;-79
2022/07/22 01:53:05;;;;;;;11.73;2.00;;;16.20;99.90;;;;;;5016182;28;20087;-79
2022/07/22 01:55:31;;;;;;;10.50;2.42;;;16.20;99.90;;;;;;5027947;28;20045;-79
2022/07/22 01:57:56;;;;;;;6.47;1.58;;;16.20;99.90;;;;;;5026813;28;20077;-79
2022/07/22 02:00:22;;;;;;;10.05;1.30;;;16.20;99.90;;;;;;5022495;28;20077;-79
2022/07/22 02:02:47;;;;;;;8.85;1.65;;;16.10;99.90;;;;;;5027400;28;20073;-79
2022/07/22 02:05:13;;;;;;;7.78;1.20;;;16.10;99.90;;;;;;5023709;28;20141;-79
2022/07/22 02:07:38;;;;;;;7.32;1.50;;;16.10;99.90;;;;;;5018941;28;20072;-79
2022/07/22 02:10:05;;;;;;;7.05;1.48;;;16.10;99.90;;;;;;5026020;28;20070;-80
2022/07/22 02:12:31;;;;;;;9.38;1.50;;;16.10;99.90;;;;;;5016522;28;20049;-80
2022/07/22 02:14:57;;;;;;;8.50;2.13;;;16.10;99.90;;;;;;5033171;28;20052;-79
2022/07/22 02:17:23;;;;;;;10.93;1.48;;;16.10;99.90;;;;;;5026703;28;20042;-79
2022/07/22 02:19:49;;;;;;;8.07;1.60;;;16.10;99.90;;;;;;5024552;28;20049;-79
2022/07/22 02:22:15;;;;;;;9.13;1.88;;;16.00;99.90;;;;;;5014977;28;20044;-79
2022/07/22 02:24:40;;;;;;;10.45;1.67;;;16.00;99.90;;;;;;5010691;28;20049;-79
2022/07/22 02:27:06;;;;;;;6.35;1.52;;;16.10;99.90;;;;;;5005573;28;20106;-79
2022/07/22 02:29:33;;;;;;;9.23;1.55;;;16.10;99.90;;;;;;5020217;28;20044;-79
2022/07/22 02:31:59;;;;;;;10.95;1.20;;;16.10;99.90;;;;;;5032366;28;20114;-79
2022/07/22 02:34:25;;;;;;;6.72;1.45;;;16.00;99.90;;;;;;5036692;28;20492;-79
2022/07/22 02:36:51;;;;;;;6.88;1.88;;;16.00;99.90;;;;;;5025280;28;20053;-79
2022/07/22 02:39:17;;;;;;;5.13;1.35;;;16.00;99.90;;;;;;5022760;28;20050;-79
2022/07/22 02:41:43;;;;;;;9.63;1.42;;;16.00;99.90;;;;;;5017452;28;20045;-79
2022/07/22 02:44:09;;;;;;;4.70;1.65;;;16.50;99.90;;;;;;5030896;28;20105;-79
2022/07/22 02:46:35;;;;;;;8.20;1.95;;;16.00;99.90;;;;;;5032958;28;20042;-79
2022/07/22 02:49:01;;;;;;;6.30;1.50;;;16.00;99.90;;;;;;5019343;28;20037;-79
2022/07/22 02:51:26;;;;;;;5.97;1.40;;;16.00;99.90;;;;;;5027071;28;20046;-80
2022/07/22 02:53:52;;;;;;;9.23;1.52;;;16.00;99.90;;;;;;5011945;28;20053;-79
2022/07/22 02:56:19;;;;;;;7.15;1.52;;;16.00;99.90;;;;;;5024498;28;20041;-80
2022/07/22 02:58:46;;;;;;;11.52;2.15;;;15.90;99.90;;;;;;5011036;28;20092;-80
2022/07/22 03:01:12;;;;;;;5.65;1.10;;;15.90;99.90;;;;;;5018855;28;20042;-80
2022/07/22 03:03:38;;;;;;;6.40;1.63;;;15.90;99.90;;;;;;4987329;28;20403;-80
2022/07/22 03:06:04;;;;;;;7.50;1.45;;;16.00;99.90;;;;;;5030051;28;20056;-80
2022/07/22 03:08:30;;;;;;;6.78;2.10;;;16.00;99.90;;;;;;5013759;28;20103;-79
2022/07/22 03:10:56;;;;;;;7.65;1.77;;;15.90;99.90;;;;;;5013777;28;20052;-80
2022/07/22 03:13:21;;;;;;;6.75;1.52;;;15.90;99.90;;;;;;5023887;28;20041;-79
2022/07/22 03:15:47;;;;;;;6.93;1.70;;;16.00;99.90;;;;;;5012388;28;20029;-79
2022/07/22 03:18:12;;;;;;;7.97;1.63;;;15.90;99.90;;;;;;5010135;28;20049;-80
2022/07/22 03:20:38;;;;;;;4.65;1.08;;;15.90;99.90;;;;;;5026699;28;20052;-80
2022/07/22 03:23:04;;;;;;;4.80;1.38;;;15.90;99.90;;;;;;5035371;28;20037;-80
2022/07/22 03:25:30;;;;;;;6.38;1.33;;;15.90;99.90;;;;;;5007831;28;20555;-80
2022/07/22 03:27:56;;;;;;;10.68;1.95;;;15.90;99.90;;;;;;5025995;28;20073;-80
2022/07/22 03:30:22;;;;;;;5.10;1.35;;;15.90;99.90;;;;;;5033488;28;20049;-80
2022/07/22 03:32:48;;;;;;;4.55;1.17;;;16.00;99.90;;;;;;5006084;28;20041;-79
2022/07/22 03:35:14;;;;;;;9.68;1.77;;;15.90;99.90;;;;;;5035316;28;20816;-80
2022/07/22 03:37:39;;;;;;;5.32;1.40;;;15.90;99.90;;;;;;5010521;28;20029;-80
2022/07/22 03:40:06;;;;;;;5.10;1.30;;;15.90;99.90;;;;;;5028472;28;20046;-79
2022/07/22 03:42:32;;;;;;;12.05;1.50;;;15.90;99.90;;;;;;5014117;28;20213;-80
2022/07/22 03:44:57;;;;;;;8.25;1.35;;;15.90;99.90;;;;;;5034060;28;20061;-79
2022/07/22 03:47:23;;;;;;;8.02;1.60;;;15.90;99.90;;;;;;5010898;28;20533;-80
2022/07/22 03:49:50;;;;;;;6.78;1.33;;;15.90;99.90;;;;;;5035652;28;20038;-80
2022/07/22 03:52:16;;;;;;;11.07;1.33;;;15.90;99.90;;;;;;5015846;28;20045;-80
2022/07/22 03:54:42;;;;;;;8.93;1.25;;;15.90;99.90;;;;;;5022596;28;20049;-80
2022/07/22 03:57:08;;;;;;;3.65;1.30;;;15.90;99.90;;;;;;5015404;28;20060;-80
2022/07/22 03:59:34;;;;;;;7.63;1.55;;;16.00;99.90;;;;;;4999895;28;20045;-79
2022/07/22 04:02:00;;;;;;;10.80;1.55;;;15.90;99.90;;;;;;5018652;28;20072;-80
2022/07/22 04:04:26;;;;;;;5.53;1.33;;;15.90;99.90;;;;;;5034038;28;20034;-80
2022/07/22 04:06:51;;;;;;;9.23;1.42;;;15.90;99.90;;;;;;5028197;28;20512;-79
2022/07/22 04:09:17;;;;;;;5.78;1.20;;;15.90;99.90;;;;;;5028997;28;20065;-80
2022/07/22 04:11:43;;;;;;;9.15;2.13;;;15.90;99.90;;;;;;5028579;28;20029;-79
2022/07/22 04:14:09;;;;;;;6.57;1.58;;;15.90;99.90;;;;;;5017720;28;20038;-80
2022/07/22 04:16:34;;;;;;;7.95;1.90;;;15.90;99.90;;;;;;5025508;28;20095;-79
2022/07/22 04:19:01;;;;;;;6.20;1.65;;;15.90;99.90;;;;;;5017634;28;20080;-79
2022/07/22 04:21:27;;;;;;;7.30;1.38;;;15.90;99.90;;;;;;5029401;28;20090;-79
2022/07/22 04:23:52;;;;;;;8.07;1.48;;;15.90;99.90;;;;;;5027603;28;20041;-79
2022/07/22 04:26:18;;;;;;;7.93;1.40;;;15.80;99.90;;;;;;5029195;28;20091;-79
2022/07/22 04:28:44;;;;;;;5.93;1.70;;;15.80;99.90;;;;;;5030808;28;20044;-79
2022/07/22 04:31:09;;;;;;;11.00;1.80;;;15.90;99.90;;;;;;5025364;28;20050;-79
2022/07/22 04:33:35;;;;;;;8.15;1.23;;;15.90;99.90;;;;;;5024726;28;20394;-80
2022/07/22 04:36:00;;;;;;;9.52;1.77;;;15.80;99.90;;;;;;5020502;28;20144;-80
2022/07/22 04:38:26;;;;;;;9.05;1.20;;;15.90;99.90;;;;;;5009923;28;20106;-80
2022/07/22 04:40:51;;;;;;;4.93;1.33;;;15.90;99.90;;;;;;5020162;28;20049;-80
2022/07/22 04:43:17;;;;;;;7.05;1.77;;;15.90;99.90;;;;;;5022956;28;20060;-80
2022/07/22 04:45:43;;;;;;;7.28;1.50;;;15.90;99.90;;;;;;5029751;28;20048;-79
2022/07/22 04:48:08;;;;;;;8.40;1.65;;;15.90;99.90;;;;;;5028632;28;20113;-79
2022/07/22 04:50:36;;;;;;;5.65;1.15;;;16.00;99.90;;;;;;5037159;28;20046;-79
2022/07/22 04:53:02;;;;;;;4.30;1.20;;;15.90;99.90;;;;;;5013874;28;20053;-79
2022/07/22 04:55:27;;;;;;;8.95;1.40;;;16.00;99.90;;;;;;5030701;28;20507;-79
2022/07/22 04:57:53;;;;;;;7.25;1.00;;;16.00;99.90;;;;;;5020054;28;20104;-79
2022/07/22 05:00:18;;;;;;;6.82;1.08;;;16.00;99.90;;;;;;5034814;28;20080;-79
2022/07/22 05:02:44;;;;;;;6.65;1.23;;;16.00;99.90;;;;;;5026734;28;20045;-79
2022/07/22 05:05:10;;;;;;;6.20;1.08;;;16.00;99.90;;;;;;5032240;28;20148;-79
2022/07/22 05:07:36;;;;;;;3.90;1.17;;;16.00;99.90;;;;;;5025508;28;20054;-79
2022/07/22 05:10:02;;;;;;;5.65;1.10;;;16.10;99.90;;;;;;5019004;28;20049;-80
2022/07/22 05:12:27;;;;;;;8.52;1.63;;;16.10;99.90;;;;;;5026981;28;20089;-80
2022/07/22 05:14:53;;;;;;;6.63;1.15;;;16.10;99.90;;;;;;5035658;28;20038;-80
2022/07/22 05:17:18;;;;;;;7.82;1.60;;;16.10;99.90;;;;;;5019534;28;20073;-79
2022/07/22 05:19:44;;;;;;;12.10;2.58;;;16.20;99.90;;;;;;5034725;28;20091;-80
2022/07/22 05:22:10;;;;;;;8.48;1.85;;;16.20;99.90;;;;;;5009866;28;20103;-79
2022/07/22 05:24:36;;;;;;;4.63;1.40;;;16.20;99.90;;;;;;5009271;28;20045;-79
2022/07/22 05:27:01;;;;;;;8.43;1.30;;;16.20;99.90;;;;;;5009324;28;20041;-79
2022/07/22 05:29:27;;;;;;;8.95;2.08;;;16.30;99.90;;;;;;5019043;28;20523;-80
2022/07/22 05:31:53;;;;;;;5.30;1.27;;;16.30;99.90;;;;;;5014465;28;20042;-79
2022/07/22 05:34:19;;;;;;;10.63;1.30;;;16.30;99.90;;;;;;5038905;28;20053;-80
2022/07/22 05:36:44;;;;;;;6.30;1.40;;;16.30;99.90;;;;;;5026438;28;20049;-80
2022/07/22 05:39:10;;;;;;;6.35;1.67;;;16.40;99.90;;;;;;5018889;28;20041;-80
2022/07/22 05:41:37;;;;;;;4.78;1.08;;;16.40;99.90;;;;;;5017128;28;20068;-80
2022/07/22 05:44:02;;;;;;;4.35;1.00;;;16.40;99.90;;;;;;5002922;28;20081;-79
2022/07/22 05:46:28;;;;;;;3.58;1.23;;;16.50;99.90;;;;;;5024299;28;20531;-79
2022/07/22 05:48:54;;;;;;;3.83;1.30;;;16.50;99.90;;;;;;5037589;28;20132;-79
2022/07/22 05:51:20;;;;;;;5.93;1.50;;;16.50;99.90;;;;;;5018017;28;20124;-79
2022/07/22 05:53:46;;;;;;;4.80;1.25;;;16.50;99.90;;;;;;5034601;28;20045;-79
2022/07/22 05:56:12;;;;;;;5.82;1.67;;;16.50;99.90;;;;;;5021400;28;20484;-79
2022/07/22 05:58:39;;;;;;;10.82;1.65;;;16.60;99.90;;;;;;5024661;28;20073;-79
2022/07/22 06:01:05;;;;;;;7.57;1.58;;;16.60;99.90;;;;;;5020938;28;20443;-79
2022/07/22 06:03:31;;;;;;;5.55;1.30;;;16.60;99.90;;;;;;5000596;28;20072;-79
2022/07/22 06:05:56;;;;;;;6.00;2.25;;;16.60;99.90;;;;;;5012901;28;20049;-80
2022/07/22 06:08:22;;;;;;;6.13;1.38;;;16.60;99.90;;;;;;5027903;28;20045;-80
2022/07/22 06:10:47;;;;;;;4.47;1.05;;;16.70;99.90;;;;;;5037276;28;20213;-80
2022/07/22 06:13:13;;;;;;;4.22;1.05;;;16.70;99.90;;;;;;5032596;28;20054;-79
2022/07/22 06:15:39;;;;;;;5.22;1.38;;;16.70;99.90;;;;;;5027067;28;20045;-79
2022/07/22 06:18:05;;;;;;;3.63;0.90;;;16.80;99.90;;;;;;5007531;28;20054;-78
2022/07/22 06:20:30;;;;;;;3.47;1.15;;;16.80;99.90;;;;;;5023561;28;20062;-79
2022/07/22 06:22:56;;;;;;;6.10;1.30;;;16.80;99.90;;;;;;5024570;28;20048;-79
2022/07/22 06:25:21;;;;;;;7.13;1.00;;;16.80;99.90;;;;;;5025838;28;20049;-79
2022/07/22 06:27:47;;;;;;;6.32;1.17;;;16.80;99.90;;;;;;5021794;28;20052;-79
2022/07/22 06:30:13;;;;;;;6.45;1.52;;;16.90;99.90;;;;;;5026666;28;20079;-80
2022/07/22 06:32:38;;;;;;;5.72;1.23;;;17.30;99.90;;;;;;5025857;28;20466;-79
2022/07/22 06:35:04;;;;;;;9.65;1.02;;;17.00;99.90;;;;;;5007385;28;20757;-79
2022/07/22 06:37:30;;;;;;;5.07;1.20;;;17.00;99.90;;;;;;5009653;28;20073;-79
2022/07/22 06:39:55;;;;;;;6.20;1.20;;;17.00;99.90;;;;;;5015419;28;20496;-79
2022/07/22 06:42:22;;;;;;;4.03;1.30;;;17.10;99.90;;;;;;5009298;28;20101;-79
2022/07/22 06:44:48;;;;;;;15.85;2.70;;;17.10;99.90;;;;;;5026267;28;20049;-79
2022/07/22 06:47:13;;;;;;;5.38;0.95;;;17.20;99.90;;;;;;5014404;28;20054;-78
2022/07/22 06:49:39;;;;;;;5.38;0.80;;;17.20;99.90;;;;;;5019843;28;20431;-79
2022/07/22 06:52:04;;;;;;;5.93;0.90;;;17.20;99.90;;;;;;5031757;28;20037;-79
2022/07/22 06:54:30;;;;;;;7.03;1.10;;;17.20;99.90;;;;;;5016787;28;20041;-79
2022/07/22 06:56:57;;;;;;;3.80;1.05;;;17.30;99.90;;;;;;5027556;28;20049;-78
2022/07/22 06:59:23;;;;;;;8.43;1.15;;;17.40;99.90;;;;;;5024669;28;20042;-79
2022/07/22 07:01:49;;;;;;;4.90;1.00;;;17.40;99.90;;;;;;5022193;28;20059;-79
2022/07/22 07:04:14;;;;;;;6.20;1.13;;;17.50;99.90;;;;;;5026919;28;20045;-79
2022/07/22 07:06:40;;;;;;;2.95;1.00;;;17.60;99.90;;;;;;5020465;28;20132;-79
2022/07/22 07:09:06;;;;;;;4.78;0.63;;;17.70;99.90;;;;;;5023355;28;20068;-79
2022/07/22 07:11:31;;;;;;;5.75;0.80;;;17.70;99.90;;;;;;5006166;28;20137;-79
2022/07/22 07:13:57;;;;;;;5.60;0.77;;;17.80;99.90;;;;;;5027960;28;20057;-79
2022/07/22 07:16:22;;;;;;;5.15;0.75;;;17.80;99.90;;;;;;5013796;28;20053;-79
2022/07/22 07:18:48;;;;;;;5.03;1.30;;;17.80;99.90;;;;;;5013753;28;20405;-79
2022/07/22 07:21:14;;;;;;;7.35;1.02;;;17.80;99.90;;;;;;5023432;28;20042;-79
2022/07/22 07:23:39;;;;;;;7.25;1.00;;;17.90;99.90;;;;;;5018467;28;20046;-79
2022/07/22 07:26:05;;;;;;;5.53;1.17;;;18.00;99.90;;;;;;5013624;28;20497;-79
2022/07/22 07:28:31;;;;;;;4.38;0.90;;;17.90;99.90;;;;;;5015211;28;20071;-79
2022/07/22 07:30:56;;;;;;;1.92;0.50;;;17.90;99.90;;;;;;5026936;28;20045;-79
2022/07/22 07:33:22;;;;;;;4.38;0.85;;;18.00;99.90;;;;;;5022884;28;20045;-80
2022/07/22 07:35:48;;;;;;;4.65;0.57;;;18.00;99.90;;;;;;5021848;28;20038;-79
2022/07/22 07:38:14;;;;;;;4.78;1.27;;;18.00;99.90;;;;;;5020780;28;20053;-79
2022/07/22 07:40:40;;;;;;;8.02;0.93;;;18.10;99.90;;;;;;5019810;28;20049;-79
2022/07/22 07:43:05;;;;;;;2.05;0.70;;;18.00;99.90;;;;;;5008260;28;20103;-79
2022/07/22 07:45:32;;;;;;;4.38;0.77;;;18.10;99.90;;;;;;5023261;28;20496;-79
2022/07/22 07:47:59;;;;;;;1.75;0.43;;;18.10;99.90;;;;;;5019745;28;20049;-79
2022/07/22 07:50:24;;;;;;;6.13;0.88;;;18.10;99.90;;;;;;5024201;28;20393;-79
2022/07/22 07:52:50;;;;;;;4.68;0.80;;;18.20;99.90;;;;;;5007169;28;20057;-79
2022/07/22 07:55:17;;;;;;;3.72;0.75;;;18.20;99.90;;;;;;5017315;28;20045;-79
2022/07/22 07:57:43;;;;;;;4.60;0.80;;;18.20;99.90;;;;;;5025098;28;20084;-79
2022/07/22 08:00:11;;;;;;;5.45;1.10;;;18.20;99.90;;;;;;5020752;28;20085;-79
2022/07/22 08:02:36;;;;;;;4.88;1.33;;;18.30;99.90;;;;;;5021579;28;20064;-79
2022/07/22 08:05:03;;;;;;;3.92;0.80;;;18.30;99.90;;;;;;5016401;28;20033;-79
2022/07/22 08:07:29;;;;;;;2.28;0.68;;;18.30;99.90;;;;;;5028593;28;20060;-80
2022/07/22 08:09:54;;;;;;;3.25;0.65;;;18.30;99.90;;;;;;5006049;28;20042;-79
2022/07/22 08:12:20;;;;;;;2.90;0.70;;;18.30;99.90;;;;;;5029443;28;20407;-79
2022/07/22 08:14:46;;;;;;;5.82;0.57;;;18.40;99.90;;;;;;5019463;28;20052;-79
2022/07/22 08:17:11;;;;;;;5.60;0.98;;;18.40;99.90;;;;;;5026723;28;20095;-79
2022/07/22 08:19:37;;;;;;;4.70;0.70;;;18.40;99.90;;;;;;5016746;28;20068;-79
2022/07/22 08:22:03;;;;;;;12.77;1.10;;;18.40;99.90;;;;;;5026725;28;20041;-79
2022/07/22 08:24:29;;;;;;;5.53;0.75;;;18.40;99.90;;;;;;5028106;28;20056;-79
2022/07/22 08:26:54;;;;;;;7.20;1.13;;;18.40;99.90;;;;;;5023607;28;20060;-79
2022/07/22 08:29:20;;;;;;;2.22;0.75;;;18.40;99.90;;;;;;5016347;28;20403;-78
2022/07/22 08:31:46;;;;;;;2.92;0.65;;;18.40;99.90;;;;;;5018417;28;20176;-80
2022/07/22 08:34:12;;;;;;;7.47;0.90;;;18.50;99.90;;;;;;5023487;28;20156;-79
2022/07/22 08:36:37;;;;;;;5.10;0.80;;;18.60;99.90;;;;;;5026349;28;20470;-79
2022/07/22 08:39:04;;;;;;;6.68;1.40;;;18.70;99.90;;;;;;5025160;28;20077;-79
2022/07/22 08:41:34;;;;;;;5.35;0.70;;;18.70;99.90;;;;;;5028926;28;20047;-79
2022/07/22 08:44:01;;;;;;;3.10;0.98;;;18.80;99.90;;;;;;5025880;28;20097;-79
2022/07/22 08:46:27;;;;;;;2.88;0.70;;;18.90;99.90;;;;;;5010523;28;20105;-79
2022/07/22 08:48:54;;;;;;;6.47;0.85;;;18.90;99.90;;;;;;5031426;28;20128;-79
2022/07/22 08:51:20;;;;;;;3.92;0.63;;;19.00;99.90;;;;;;5028577;28;20048;-79
2022/07/22 08:53:46;;;;;;;4.47;0.70;;;19.00;99.90;;;;;;5022891;28;20073;-79
2022/07/22 08:56:13;;;;;;;3.80;0.63;;;19.00;99.90;;;;;;5022910;28;20080;-79
2022/07/22 08:58:39;;;;;;;4.63;0.77;;;18.90;99.90;;;;;;5025355;28;20410;-79
2022/07/22 09:01:09;;;;;;;4.82;0.68;;;19.00;99.90;;;;;;5027072;28;20030;-79
2022/07/22 09:03:55;;;;;;;4.57;0.90;;;19.10;99.90;;;;;;5018432;28;20065;-79
2022/07/22 09:06:25;;;;;;;5.97;1.60;;;19.10;99.90;;;;;;5029138;28;20557;-79
2022/07/22 09:08:59;;;;;;;3.85;0.43;;;19.20;99.90;;;;;;5029922;28;20054;-80
2022/07/22 09:11:28;;;;;;;3.30;0.60;;;19.20;99.90;;;;;;5010545;28;20080;-79
2022/07/22 09:13:55;;;;;;;5.85;0.95;;;19.20;99.90;;;;;;5019987;28;20127;-79
2022/07/22 09:16:41;;;;;;;3.28;0.73;;;19.30;99.90;;;;;;5018104;28;20042;-79
2022/07/22 09:19:07;;;;;;;3.53;0.63;;;19.30;99.90;;;;;;5024666;28;20049;-79
2022/07/22 09:21:36;;;;;;;5.05;1.02;;;19.40;99.90;;;;;;5030156;28;20042;-79
2022/07/22 09:24:02;;;;;;;4.45;0.57;;;19.40;99.90;;;;;;5030448;28;20048;-79
2022/07/22 09:26:39;;;;;;;2.35;0.43;;;19.40;99.90;;;;;;5025186;28;20060;-79
2022/07/22 09:29:06;;;;;;;3.50;0.40;;;19.30;99.90;;;;;;5025989;28;20049;-79
2022/07/22 09:31:37;;;;;;;3.53;0.75;;;19.30;99.90;;;;;;4999977;28;20051;-79
2022/07/22 09:34:04;;;;;;;3.33;0.60;;;19.30;99.90;;;;;;5023964;28;20131;-79
2022/07/22 09:36:30;;;;;;;2.47;0.50;;;19.30;99.90;;;;;;5023050;28;20054;-79
2022/07/22 09:38:56;;;;;;;2.38;0.60;;;19.20;99.90;;;;;;5027584;28;20038;-79
2022/07/22 09:41:23;;;;;;;4.32;0.57;;;19.10;99.90;;;;;;5021006;28;20056;-79
2022/07/22 09:43:52;;;;;;;2.13;0.52;;;19.10;99.90;;;;;;5025936;28;20053;-79
2022/07/22 09:46:34;;;;;;;3.05;0.60;;;19.10;99.90;;;;;;5018646;28;20038;-79
2022/07/22 09:48:59;;;;;;;3.85;0.60;;;19.00;99.90;;;;;;5029825;28;20057;-79
2022/07/22 09:51:25;;;;;;;4.05;0.70;;;19.00;99.90;;;;;;5022876;28;20045;-80
2022/07/22 09:53:52;;;;;;;2.95;0.68;;;18.90;99.90;;;;;;5024324;28;20084;-80
2022/07/22 09:56:18;;;;;;;8.00;0.77;;;18.70;99.90;;;;;;5015909;28;20456;-79
2022/07/22 09:58:43;;;;;;;3.60;0.40;;;18.60;99.90;;;;;;5021466;28;20049;-79
2022/07/22 10:01:10;;;;;;;6.15;1.15;;;18.60;99.90;;;;;;5026475;28;20041;-79
2022/07/22 10:03:36;;;;;;;2.17;0.45;;;18.60;99.90;;;;;;5027205;28;20403;-79
2022/07/22 10:06:03;;;;;;;6.03;1.02;;;18.70;99.90;;;;;;5016929;28;20050;-78
2022/07/22 10:08:31;;;;;;;4.85;0.73;;;18.70;99.90;;;;;;5025662;28;20045;-79
2022/07/22 10:11:00;;;;;;;5.95;1.35;;;18.70;99.90;;;;;;5006321;28;20045;-79
2022/07/22 10:13:26;;;;;;;4.72;1.02;;;18.80;99.90;;;;;;5024229;28;20406;-79
2022/07/22 10:15:52;;;;;;;4.32;0.88;;;18.80;99.90;;;;;;5022153;28;20049;-79
2022/07/22 10:18:19;;;;;;;4.20;0.50;;;18.80;99.90;;;;;;5016617;28;20440;-79
2022/07/22 10:20:45;;;;;;;4.45;0.88;;;18.80;99.90;;;;;;5006357;28;20052;-79
2022/07/22 10:23:13;;;;;;;3.60;0.70;;;18.90;99.90;;;;;;5026756;28;20481;-81
2022/07/22 10:25:53;;;;;;;6.35;0.63;;;18.90;99.90;;;;;;5019279;28;20042;-81
2022/07/22 10:28:33;;;;;;;3.83;0.60;;;19.00;99.90;;;;;;5028254;28;20042;-81
2022/07/22 10:31:13;;;;;;;4.32;0.47;;;19.00;99.90;;;;;;5015511;28;20100;-79
2022/07/22 10:33:44;;;;;;;3.83;0.60;;;19.10;99.90;;;;;;5011026;28;20502;-82
2022/07/22 10:36:13;;;;;;;1.17;0.47;;;19.10;99.90;;;;;;5026788;28;21032;-83
2022/07/22 10:39:07;;;;;;;2.47;0.30;;;19.20;99.90;;;;;;5012127;28;20142;-83
2022/07/22 10:41:53;;;;;;;3.33;0.30;;;19.20;99.90;;;;;;4966758;28;20049;-83
2022/07/22 10:44:57;;;;;;;7.10;0.88;;;19.30;99.90;;;;;;5007505;28;20263;-83
2022/07/22 10:47:59;;;;;;;7.45;0.70;;;19.50;99.90;;;;;;5022179;28;20041;-81
2022/07/22 10:51:07;;;;;;;6.05;0.80;;;19.30;99.90;;;;;;4915880;29;20043;-87
2022/07/22 10:53:51;;;;;;;2.85;0.60;;;19.20;99.90;;;;;;4928436;29;20491;-85
2022/07/22 10:56:42;;;;;;;;;;;;;;;;;;;;;
2022/07/22 11:00:37;;;;;;;4.55;0.40;;;19.10;99.90;;;;;;4928928;29;20197;-85
2022/07/22 11:03:12;;;;;;;3.13;0.38;;;19.10;99.90;;;;;;4909744;29;20050;-86
2022/07/22 11:05:52;;;;;;;3.58;0.52;;;19.20;99.90;;;;;;4924445;28;20055;-84
2022/07/22 11:08:28;;;;;;;;;;;;;;;;;;;;;
2022/07/22 11:11:38;;;;;;;;;;;;;;;;;;;;;
2022/07/22 11:15:13;;;;;;;;;;;;;;;;;;;;;
2022/07/22 11:18:40;;;;;;;2.35;0.50;;;19.20;99.90;;;;;;4929785;28;20053;-84
2022/07/22 11:21:43;;;;;;;;;;;;;;;;;;;;;
2022/07/22 11:24:37;;;;;;;;;;;;;;;;;;;;;
2022/07/22 11:28:04;;;;;;;2.35;0.50;;;19.20;99.90;;;;;;4965312;28;19924;-85
2022/07/22 11:31:09;;;;;;;2.17;0.73;;;19.20;99.90;;;;;;4934186;28;20118;-86
2022/07/22 11:34:11;;;;;;;1.90;0.40;;;19.30;99.90;;;;;;4979742;28;20064;-85
2022/07/22 11:37:36;;;;;;;3.63;1.33;;;19.10;99.90;;;;;;5018207;28;20046;-84
2022/07/22 11:43:47;;;;;;;1.33;0.40;;;19.50;99.90;;;;;;5008208;28;20041;-80
2022/07/22 11:46:13;;;;;;;4.47;0.80;;;20.00;99.90;;;;;;5024294;28;20092;-81
2022/07/22 11:48:42;;;;;;;4.88;0.50;;;19.70;99.90;;;;;;5024422;28;20052;-80
2022/07/22 11:51:12;;;;;;;7.35;0.90;;;19.70;99.90;;;;;;5015075;28;20088;-80
2022/07/22 11:53:39;;;;;;;4.07;0.82;;;19.70;99.90;;;;;;5011929;28;20075;-83
2022/07/22 11:56:07;;;;;;;1.50;0.40;;;19.80;99.90;;;;;;5009316;28;20045;-79
2022/07/22 11:58:37;;;;;;;3.22;0.57;;;19.70;99.90;;;;;;5032213;28;20041;-82
2022/07/22 12:01:08;;;;;;;8.02;0.60;;;19.70;99.90;;;;;;5026138;28;20055;-82
2022/07/22 12:03:36;;;;;;;1.38;0.50;;;19.70;99.90;;;;;;5028110;28;20072;-82
2022/07/22 12:06:06;;;;;;;2.38;0.52;;;19.60;99.90;;;;;;5014489;28;20069;-81
2022/07/22 12:08:32;;;;;;;2.13;0.40;;;19.60;99.90;;;;;;5035224;28;20034;-81
2022/07/22 12:10:58;;;;;;;2.38;0.52;;;19.60;99.90;;;;;;5014504;28;20037;-80
2022/07/22 12:13:31;;;;;;;3.30;1.08;;;19.50;99.90;;;;;;5020701;28;20075;-79
2022/07/22 12:15:57;;;;;;;1.88;0.40;;;19.40;99.90;;;;;;5011249;28;20045;-80
2022/07/22 12:18:26;;;;;;;1.08;0.43;;;19.40;99.90;;;;;;5028008;28;20034;-80
2022/07/22 12:20:53;;;;;;;1.92;0.50;;;19.40;99.90;;;;;;5029056;28;20124;-79
2022/07/22 12:23:24;;;;;;;2.50;0.40;;;19.40;99.90;;;;;;5020259;28;20188;-80
2022/07/22 12:26:00;;;;;;;3.72;0.43;;;19.40;99.90;;;;;;5026966;28;20050;-79
2022/07/22 12:28:27;;;;;;;4.15;0.30;;;19.40;99.90;;;;;;5010453;28;20037;-80
2022/07/22 12:30:55;;;;;;;1.13;0.30;;;19.40;99.90;;;;;;5027585;28;20034;-80
2022/07/22 12:33:22;;;;;;;1.27;0.40;;;19.40;99.90;;;;;;5027546;28;20045;-80
2022/07/22 12:36:05;;;;;;;2.78;0.40;;;19.40;99.90;;;;;;5020488;28;20049;-79
2022/07/22 12:38:31;;;;;;;2.90;0.30;;;19.50;99.90;;;;;;5026399;28;20072;-80
2022/07/22 12:41:23;;;;;;;2.05;0.40;;;19.50;99.90;;;;;;5012572;28;20049;-80
2022/07/22 12:43:50;;;;;;;2.45;0.55;;;19.60;99.90;;;;;;5014219;28;20615;-81
2022/07/22 12:46:16;;;;;;;2.10;0.35;;;19.60;99.90;;;;;;5029104;28;20033;-80
2022/07/22 12:48:53;;;;;;;3.53;0.57;;;19.60;99.90;;;;;;5012078;28;20038;-80
2022/07/22 12:51:19;;;;;;;4.03;0.50;;;19.60;99.90;;;;;;5027501;28;20171;-81
2022/07/22 12:53:45;;;;;;;2.55;0.65;;;19.60;99.90;;;;;;5027833;28;20041;-80
2022/07/22 12:56:10;;;;;;;4.35;0.70;;;19.60;99.90;;;;;;5026907;28;20056;-80
2022/07/22 12:58:39;;;;;;;3.55;0.60;;;19.70;99.90;;;;;;5024192;28;20049;-80
2022/07/22 13:01:06;;;;;;;2.75;0.50;;;19.70;99.90;;;;;;5002896;28;20041;-80
2022/07/22 13:04:01;;;;;;;1.92;0.35;;;19.80;99.90;;;;;;5028070;28;20042;-80
2022/07/22 13:06:26;;;;;;;3.53;0.52;;;19.90;99.90;;;;;;5025132;28;20535;-80